San Diego, California
Traffic Map
Current Weather Conditions
San Diego, California
Overcast
Overcast
60°
Feels Like: 60°
Wind Chill: 60° Ceiling: 1400
Heat Index: 60° Visibility: 10mi
Dew Point: 51° Wind: 7mph
Humidity: 72% Direction: 180° (S)
Pressure: 29.89in Gusts: 0mph
Raw Report DataKSAN 161551Z 18006KT 10SM OVC014 16/11 A2989 RMK AO2 SLP120 T01560106
Traffic Incident Summary
Active as of:
Severity:
Category:
InformationThere was an issue retrieving the traffic information for this location. Please try a different location or try again shortly.
Advertisements
At Last! Intellicast now available for iPhone and Android